Time;durP1;ratioP1;P1;durP2;ratioP2;P2;SDS_P1;SDS_P2;PMS_P1;PMS_P2;Temp;Humidity;BMP_temperature;BMP_pressure;BME280_temperature;BME280_humidity;BME280_pressure;Samples;Min_cycle;Max_cycle;Signal;HPM_P1;HPM_P2
2021/10/10 00:04:35;;;;;;;76.90;52.00;;;;;;;0.80;73.36;101507.15;230985;1192;140240;-65
2021/10/10 00:09:40;;;;;;;82.50;49.30;;;;;;;0.84;73.50;101503.51;229580;1192;140485;-65
2021/10/10 00:14:45;;;;;;;84.20;52.80;;;;;;;0.86;73.54;101499.63;230018;1192;140274;-65
2021/10/10 00:19:50;;;;;;;78.00;53.10;;;;;;;0.83;73.92;101500.62;229498;1192;140470;-64
2021/10/10 00:24:54;;;;;;;85.60;55.10;;;;;;;0.75;73.58;101498.48;229568;1192;140153;-65
2021/10/10 00:30:00;;;;;;;73.80;48.20;;;;;;;0.66;74.09;101494.47;230574;1192;139264;-66
2021/10/10 00:35:06;;;;;;;72.10;40.00;;;;;;;0.61;73.92;101491.60;229675;1192;140662;-65
2021/10/10 00:40:11;;;;;;;64.40;39.00;;;;;;;0.60;73.70;101490.05;229901;1190;139820;-66
2021/10/10 00:45:15;;;;;;;61.40;40.70;;;;;;;0.58;73.76;101485.39;229813;1190;139248;-66
2021/10/10 00:50:18;;;;;;;75.30;41.50;;;;;;;0.54;74.14;101479.02;230469;1191;139153;-65
2021/10/10 00:55:22;;;;;;;56.30;33.80;;;;;;;0.52;74.04;101478.70;230062;1190;141656;-66
2021/10/10 01:00:28;;;;;;;53.50;36.00;;;;;;;0.47;74.24;101473.58;229947;1192;139282;-67
2021/10/10 01:05:33;;;;;;;62.60;35.40;;;;;;;0.44;74.49;101471.86;229480;1190;140081;-66
2021/10/10 01:10:39;;;;;;;61.40;35.90;;;;;;;0.50;74.44;101466.66;229760;1184;139715;-66
2021/10/10 01:15:44;;;;;;;66.00;39.70;;;;;;;0.48;74.60;101468.41;229481;1192;139463;-65
2021/10/10 01:20:50;;;;;;;53.50;35.70;;;;;;;0.46;74.41;101465.70;229271;1192;139835;-64
2021/10/10 01:25:54;;;;;;;57.90;37.20;;;;;;;0.42;74.53;101463.14;230688;1192;140419;-66
2021/10/10 01:30:58;;;;;;;54.80;33.40;;;;;;;0.35;74.72;101462.45;230618;1187;139430;-65
2021/10/10 01:36:09;;;;;;;64.10;39.00;;;;;;;0.30;74.79;101459.64;229255;1192;140044;-64
2021/10/10 01:41:14;;;;;;;70.50;42.70;;;;;;;0.36;74.50;101457.10;229950;1193;139728;-67
2021/10/10 01:46:18;;;;;;;61.40;36.50;;;;;;;0.38;74.69;101454.16;229689;1192;139491;-65
2021/10/10 01:51:23;;;;;;;61.80;32.70;;;;;;;0.36;74.90;101450.64;230762;1192;138858;-69
2021/10/10 01:56:28;;;;;;;62.60;36.00;;;;;;;0.31;74.96;101448.60;231047;1192;139886;-65
2021/10/10 02:01:32;;;;;;;58.20;37.20;;;;;;;0.26;74.72;101446.77;230912;1192;139331;-66
2021/10/10 02:06:37;;;;;;;59.70;35.00;;;;;;;0.23;74.91;101443.00;230180;1192;139871;-65
2021/10/10 02:11:42;;;;;;;66.10;37.80;;;;;;;0.31;74.85;101439.50;229995;1192;140575;-67
2021/10/10 02:16:47;;;;;;;75.70;42.70;;;;;;;0.34;74.82;101437.70;230757;1192;139970;-66
2021/10/10 02:21:52;;;;;;;64.90;38.50;;;;;;;0.31;75.10;101437.56;229786;1192;140523;-65
2021/10/10 02:26:56;;;;;;;59.40;37.60;;;;;;;0.28;74.92;101438.90;229823;1192;139735;-66
2021/10/10 02:32:01;;;;;;;59.50;34.10;;;;;;;0.27;75.26;101437.77;230383;1192;139352;-65
2021/10/10 02:37:07;;;;;;;59.40;35.00;;;;;;;0.25;75.29;101436.70;229567;1192;139532;-65
2021/10/10 02:42:12;;;;;;;57.40;37.90;;;;;;;0.27;74.93;101433.92;229263;1192;139484;-65
2021/10/10 02:47:17;;;;;;;69.40;40.70;;;;;;;0.28;75.27;101431.94;229684;1192;140200;-66
2021/10/10 02:52:23;;;;;;;56.50;36.00;;;;;;;0.29;75.77;101430.55;229933;1192;139321;-67
2021/10/10 02:57:29;;;;;;;54.80;32.60;;;;;;;0.33;75.68;101433.86;229817;1192;139020;-66
2021/10/10 03:02:33;;;;;;;58.40;33.40;;;;;;;0.37;75.40;101432.26;229741;1192;140381;-67
2021/10/10 03:07:39;;;;;;;48.60;34.10;;;;;;;0.36;75.42;101430.38;230085;1192;141058;-66
2021/10/10 03:12:44;;;;;;;57.20;34.20;;;;;;;0.29;75.49;101424.44;229466;1192;139372;-66
2021/10/10 03:17:49;;;;;;;46.50;29.90;;;;;;;0.15;75.01;101416.56;230190;1192;139041;-66
2021/10/10 03:22:53;;;;;;;44.10;25.50;;;;;;;0.00;75.00;101416.20;230608;1192;139069;-65
2021/10/10 03:27:57;;;;;;;50.00;28.90;;;;;;;-0.12;75.11;101415.45;230379;1192;139269;-66
2021/10/10 03:33:02;;;;;;;51.30;27.30;;;;;;;-0.12;74.96;101417.40;230470;1192;140219;-67
2021/10/10 03:38:07;;;;;;;48.90;33.30;;;;;;;-0.18;75.06;101408.64;230962;1192;140230;-67
2021/10/10 03:43:11;;;;;;;42.80;29.00;;;;;;;-0.25;75.19;101403.59;231071;1192;139872;-66
2021/10/10 03:48:16;;;;;;;42.00;26.30;;;;;;;-0.28;75.30;101396.02;230751;1192;140456;-66
2021/10/10 03:53:27;;;;;;;47.20;30.20;;;;;;;-0.28;75.28;101395.33;230909;1191;139213;-66
2021/10/10 03:58:34;;;;;;;44.60;26.10;;;;;;;-0.23;75.79;101387.73;230807;1192;139991;-66
2021/10/10 04:03:38;;;;;;;53.40;29.90;;;;;;;-0.20;75.27;101385.18;229744;1192;142061;-66
2021/10/10 04:08:44;;;;;;;52.20;31.60;;;;;;;-0.21;75.30;101385.23;229510;1192;140487;-65
2021/10/10 04:13:49;;;;;;;45.50;27.30;;;;;;;-0.23;75.79;101381.97;229495;1192;141609;-65
2021/10/10 04:18:54;;;;;;;45.20;27.70;;;;;;;-0.27;75.66;101378.41;229273;1192;140562;-66
2021/10/10 04:23:58;;;;;;;45.40;29.40;;;;;;;-0.32;75.85;101373.21;229714;1192;141657;-65
2021/10/10 04:29:03;;;;;;;47.00;28.80;;;;;;;-0.40;75.68;101372.46;230100;1192;140559;-65
2021/10/10 04:34:10;;;;;;;47.90;29.40;;;;;;;-0.38;75.78;101371.30;229210;1193;141660;-65
2021/10/10 04:39:15;;;;;;;44.70;27.50;;;;;;;-0.38;75.78;101367.93;229570;1192;140402;-65
2021/10/10 04:44:20;;;;;;;52.90;29.70;;;;;;;-0.39;75.89;101368.39;229236;1192;158956;-65
2021/10/10 04:49:24;;;;;;;36.40;24.40;;;;;;;-0.44;76.02;101362.85;229789;1192;140756;-65
2021/10/10 04:54:30;;;;;;;47.40;25.40;;;;;;;-0.50;76.01;101359.17;228146;1192;139240;-66
2021/10/10 04:59:35;;;;;;;51.50;29.20;;;;;;;-0.45;75.92;101356.80;228772;1192;140244;-65
2021/10/10 05:04:40;;;;;;;48.70;25.50;;;;;;;-0.43;76.11;101357.16;228935;1192;139631;-66
2021/10/10 05:09:44;;;;;;;46.20;26.40;;;;;;;-0.40;76.26;101354.48;228990;1192;139510;-65
2021/10/10 05:14:49;;;;;;;46.30;26.40;;;;;;;-0.40;76.50;101352.58;229820;1192;140360;-65
2021/10/10 05:19:54;;;;;;;50.30;26.70;;;;;;;-0.39;76.41;101354.73;229293;1192;139352;-65
2021/10/10 05:25:00;;;;;;;44.50;23.40;;;;;;;-0.36;76.56;101356.26;229662;1192;139512;-65
2021/10/10 05:30:06;;;;;;;53.70;28.80;;;;;;;-0.30;76.38;101352.80;230063;1192;140982;-65
2021/10/10 05:35:10;;;;;;;50.00;28.20;;;;;;;-0.21;76.52;101350.33;228841;1192;141164;-66
2021/10/10 05:40:14;;;;;;;47.20;27.70;;;;;;;-0.17;76.36;101355.41;230823;1192;139396;-66
2021/10/10 05:45:18;;;;;;;39.90;24.30;;;;;;;-0.14;76.56;101352.52;230433;1192;139842;-66
2021/10/10 05:50:22;;;;;;;39.80;25.10;;;;;;;-0.06;76.22;101355.15;230917;1192;142861;-66
2021/10/10 05:55:26;;;;;;;44.00;28.50;;;;;;;0.12;76.67;101354.23;231377;1192;141244;-66
2021/10/10 06:00:30;;;;;;;44.20;28.30;;;;;;;0.28;76.80;101358.98;230610;1192;139759;-66
2021/10/10 06:05:35;;;;;;;40.10;26.40;;;;;;;0.38;77.08;101362.00;230288;1187;140063;-65
2021/10/10 06:10:39;;;;;;;48.00;25.80;;;;;;;0.50;77.24;101363.73;229725;1192;140952;-65
2021/10/10 06:15:46;;;;;;;41.90;25.50;;;;;;;0.68;77.07;101369.00;229621;1192;140533;-66
2021/10/10 06:20:50;;;;;;;41.60;26.30;;;;;;;0.82;77.15;101366.30;230310;1192;140878;-65
2021/10/10 06:25:56;;;;;;;43.50;27.20;;;;;;;0.92;77.42;101367.54;229084;1192;140074;-64
2021/10/10 06:31:01;;;;;;;40.10;25.30;;;;;;;1.04;77.39;101368.52;229386;1192;141951;-64
2021/10/10 06:36:06;;;;;;;43.70;26.00;;;;;;;1.25;77.60;101370.33;229488;1192;141763;-65
2021/10/10 06:41:10;;;;;;;39.50;28.60;;;;;;;1.42;77.72;101369.60;229500;1192;139422;-64
2021/10/10 06:46:15;;;;;;;34.50;24.50;;;;;;;1.61;78.00;101368.06;229785;1192;140137;-65
2021/10/10 06:51:21;;;;;;;44.90;25.60;;;;;;;1.82;77.72;101374.36;229843;1192;139865;-67
2021/10/10 06:56:25;;;;;;;44.50;27.40;;;;;;;2.14;78.03;101369.89;229134;1192;159577;-65
2021/10/10 07:01:30;;;;;;;49.30;28.70;;;;;;;2.44;78.39;101371.50;228765;1192;142448;-65
2021/10/10 07:06:36;;;;;;;44.20;27.50;;;;;;;2.71;78.24;101364.28;229679;1192;139504;-65
2021/10/10 07:11:40;;;;;;;43.20;27.20;;;;;;;2.99;78.19;101359.67;229304;1192;142042;-65
2021/10/10 07:16:45;;;;;;;48.80;25.90;;;;;;;3.30;78.23;101357.00;229275;1192;140673;-66
2021/10/10 07:21:58;;;;;;;44.90;28.50;;;;;;;3.65;78.44;101355.37;229956;1192;141150;-65
2021/10/10 07:27:01;;;;;;;41.90;26.30;;;;;;;3.93;78.41;101351.90;229165;1192;142196;-65
2021/10/10 07:32:06;;;;;;;42.20;24.50;;;;;;;4.18;78.54;101344.64;229898;1192;140716;-65
2021/10/10 07:37:10;;;;;;;32.20;21.20;;;;;;;4.43;78.03;101343.95;229867;1192;140235;-66
2021/10/10 07:42:13;;;;;;;32.40;20.90;;;;;;;4.67;77.89;101339.00;230412;1192;140402;-66
2021/10/10 07:52:30;;;;;;;27.20;16.20;;;;;;;5.20;77.14;101343.79;231284;1192;140194;-66
2021/10/10 07:57:40;;;;;;;26.80;15.50;;;;;;;5.54;76.85;101340.30;230956;1191;140349;-66
2021/10/10 08:02:55;;;;;;;22.40;14.50;;;;;;;5.87;76.21;101337.80;230970;1192;140263;-67
2021/10/10 08:08:00;;;;;;;21.60;13.10;;;;;;;6.23;75.88;101333.95;231356;1192;140039;-69
2021/10/10 08:13:05;;;;;;;19.20;11.90;;;;;;;6.53;75.36;101331.13;230882;1192;139598;-67
2021/10/10 08:18:10;;;;;;;23.60;13.50;;;;;;;6.84;74.97;101325.23;230593;1192;139066;-68
2021/10/10 08:23:16;;;;;;;16.50;10.10;;;;;;;7.13;75.06;101328.78;230434;1192;141219;-66
2021/10/10 08:28:26;;;;;;;18.10;11.50;;;;;;;7.47;74.60;101328.48;230668;1192;141310;-67
2021/10/10 08:33:30;;;;;;;11.40;6.80;;;;;;;7.77;73.90;101327.33;230635;1192;141767;-69
2021/10/10 08:38:36;;;;;;;11.10;7.90;;;;;;;8.12;73.39;101325.55;230308;1192;139801;-70
2021/10/10 08:43:45;;;;;;;8.10;4.90;;;;;;;8.44;72.02;101326.45;230377;1192;139033;-69
2021/10/10 08:48:53;;;;;;;7.70;5.90;;;;;;;8.74;70.65;101323.36;229885;1192;140571;-70
2021/10/10 08:53:58;;;;;;;13.70;6.20;;;;;;;9.06;69.87;101323.24;229883;1192;139222;-67
2021/10/10 08:59:03;;;;;;;6.60;5.00;;;;;;;9.37;68.42;101314.67;230143;1192;139973;-67
2021/10/10 09:04:08;;;;;;;10.30;5.60;;;;;;;9.71;67.60;101315.46;230520;1192;139259;-68
2021/10/10 09:09:32;;;;;;;10.00;5.60;;;;;;;10.05;66.42;101311.87;229208;1192;139631;-67
2021/10/10 09:14:51;;;;;;;7.20;5.90;;;;;;;10.39;65.76;101311.27;230506;1192;139444;-68
2021/10/10 09:19:58;;;;;;;7.50;4.80;;;;;;;10.71;64.89;101302.01;230531;1192;141131;-68
2021/10/10 09:25:12;;;;;;;8.20;4.10;;;;;;;10.99;64.14;101297.83;230125;1192;140092;-69
2021/10/10 09:30:19;;;;;;;5.20;4.50;;;;;;;11.32;63.58;101291.70;229811;1192;139961;-68
2021/10/10 09:35:30;;;;;;;4.50;3.80;;;;;;;11.59;62.37;101290.06;230416;1190;139729;-68
2021/10/10 09:40:36;;;;;;;7.40;3.30;;;;;;;11.88;61.28;101284.12;231229;1190;139460;-68
2021/10/10 09:45:53;;;;;;;4.30;3.10;;;;;;;12.20;60.98;101280.64;231036;1192;141636;-69
2021/10/10 09:50:57;;;;;;;7.90;2.50;;;;;;;12.51;59.75;101278.32;231155;1190;139310;-68
2021/10/10 09:56:07;;;;;;;4.10;3.30;;;;;;;12.79;59.45;101274.86;231223;1190;138977;-68
2021/10/10 10:01:23;;;;;;;6.10;3.40;;;;;;;12.97;58.03;101277.30;231422;1190;140557;-69
2021/10/10 10:06:31;;;;;;;4.70;4.00;;;;;;;13.14;57.33;101270.73;230564;1190;142738;-69
2021/10/10 10:11:37;;;;;;;5.00;3.80;;;;;;;13.36;56.45;101271.31;231271;1190;140283;-68
2021/10/10 10:16:51;;;;;;;5.20;3.60;;;;;;;13.56;55.58;101266.35;229924;1190;139208;-68
2021/10/10 10:21:58;;;;;;;4.80;3.20;;;;;;;13.75;54.38;101259.48;230631;1190;139243;-69
2021/10/10 10:27:02;;;;;;;8.40;4.20;;;;;;;13.75;52.94;101264.06;230925;1190;139677;-69
2021/10/10 10:32:09;;;;;;;6.80;4.20;;;;;;;13.84;52.23;101261.59;230808;1192;138998;-67
2021/10/10 10:37:14;;;;;;;5.60;3.10;;;;;;;13.97;51.37;101257.63;230078;1192;140177;-68
2021/10/10 10:42:39;;;;;;;5.00;3.80;;;;;;;14.08;50.70;101251.73;229764;1192;139581;-67
2021/10/10 10:47:43;;;;;;;7.40;3.90;;;;;;;14.27;50.43;101249.29;229804;1192;141442;-68
2021/10/10 10:53:04;;;;;;;4.90;4.20;;;;;;;14.35;49.27;101238.11;229844;1192;139222;-68
2021/10/10 10:58:13;;;;;;;5.40;3.60;;;;;;;14.47;49.64;101236.66;229934;1192;141050;-68
2021/10/10 11:03:23;;;;;;;7.60;4.20;;;;;;;14.68;49.61;101232.21;230169;1192;139757;-69
2021/10/10 11:08:27;;;;;;;6.80;3.90;;;;;;;14.83;49.23;101233.55;229676;1192;139043;-68
2021/10/10 11:13:35;;;;;;;8.50;3.80;;;;;;;14.99;48.87;101227.85;229866;1192;139592;-68
2021/10/10 11:19:06;;;;;;;4.40;3.70;;;;;;;15.11;48.58;101220.81;230050;1192;140169;-69
2021/10/10 11:24:18;;;;;;;3.80;3.40;;;;;;;15.19;47.94;101218.73;229265;1192;140580;-67
2021/10/10 11:29:48;;;;;;;4.60;4.20;;;;;;;15.28;48.07;101213.21;230770;1192;140359;-68
2021/10/10 11:34:58;;;;;;;5.50;3.70;;;;;;;15.43;47.61;101209.84;229886;1191;139779;-68
2021/10/10 11:40:09;;;;;;;6.80;3.50;;;;;;;15.58;47.43;101206.67;230207;1190;138986;-69
2021/10/10 11:45:21;;;;;;;9.30;5.00;;;;;;;15.73;47.25;101200.74;231080;1191;139578;-69
2021/10/10 11:50:34;;;;;;;10.60;4.40;;;;;;;15.82;46.00;101191.25;229886;1190;139145;-69
2021/10/10 11:55:43;;;;;;;6.10;4.50;;;;;;;15.78;45.45;101189.69;231015;1190;141621;-69
2021/10/10 12:00:47;;;;;;;9.10;3.90;;;;;;;15.78;45.31;101178.65;231278;1192;141212;-68
2021/10/10 12:05:52;;;;;;;6.00;4.30;;;;;;;15.74;45.09;101174.70;231464;1192;139329;-69
2021/10/10 12:10:57;;;;;;;7.50;4.40;;;;;;;15.61;43.78;101176.37;231242;1191;139596;-69
2021/10/10 12:16:04;;;;;;;6.00;4.00;;;;;;;15.42;43.54;101169.30;230403;1190;140008;-68
2021/10/10 12:21:24;;;;;;;;;;;;;;;15.38;43.30;101164.41;230676;1192;139945;-69
2021/10/10 12:26:30;;;;;;;18.30;4.60;;;;;;;15.29;43.15;101154.89;230980;1192;127290;-67
2021/10/10 12:31:36;;;;;;;6.40;4.70;;;;;;;15.29;42.88;101153.97;229437;1192;140906;-68
2021/10/10 12:36:45;;;;;;;7.20;4.80;;;;;;;15.26;42.53;101142.30;229548;1193;140205;-68
2021/10/10 12:41:57;;;;;;;7.20;6.00;;;;;;;15.24;42.62;101139.45;229808;1192;140098;-68
2021/10/10 12:47:01;;;;;;;5.00;4.10;;;;;;;15.15;42.13;101137.88;230463;1192;138941;-68
2021/10/10 12:52:09;;;;;;;8.30;5.00;;;;;;;14.88;41.84;101135.63;228997;1192;140601;-66
2021/10/10 12:57:15;;;;;;;7.10;5.90;;;;;;;14.55;42.56;101132.50;229087;1192;141824;-68
2021/10/10 13:02:20;;;;;;;6.70;4.70;;;;;;;14.43;42.08;101134.63;229682;1192;140529;-66
2021/10/10 13:07:25;;;;;;;7.70;4.70;;;;;;;14.54;42.21;101129.84;229588;1193;140382;-69
2021/10/10 13:12:31;;;;;;;6.10;3.70;;;;;;;14.67;42.18;101122.20;230413;1192;139688;-69
2021/10/10 13:17:35;;;;;;;7.00;4.60;;;;;;;14.78;42.33;101119.59;230040;1192;142898;-72
2021/10/10 13:22:39;;;;;;;7.20;5.20;;;;;;;14.83;41.85;101118.45;229883;1192;142919;-68
2021/10/10 13:27:45;;;;;;;9.60;5.50;;;;;;;14.84;41.72;101114.59;229707;1182;141314;-69
2021/10/10 13:32:50;;;;;;;12.90;6.10;;;;;;;14.90;41.40;101111.38;229280;1190;208762;-69
2021/10/10 13:37:56;;;;;;;8.80;5.30;;;;;;;14.89;40.94;101104.94;229830;1192;140419;-69
2021/10/10 13:43:05;;;;;;;8.20;6.10;;;;;;;14.83;41.60;101100.56;229884;1192;140780;-70
2021/10/10 13:48:10;;;;;;;7.20;5.90;;;;;;;14.81;41.44;101096.63;230682;1192;139995;-68
2021/10/10 13:53:13;;;;;;;7.30;5.40;;;;;;;14.84;41.84;101092.83;229906;1192;142156;-67
2021/10/10 13:58:18;;;;;;;8.20;5.40;;;;;;;14.78;41.88;101089.85;231084;1192;140186;-69
2021/10/10 14:03:24;;;;;;;6.00;4.10;;;;;;;14.66;41.40;101092.31;231081;1192;140774;-72
2021/10/10 14:08:29;;;;;;;13.70;5.70;;;;;;;14.49;41.44;101084.95;231132;1191;140239;-73
2021/10/10 14:13:34;;;;;;;7.80;6.10;;;;;;;14.38;41.51;101085.00;229334;1192;141102;-70
2021/10/10 14:18:38;;;;;;;7.40;6.00;;;;;;;14.26;41.54;101075.91;228745;1192;140676;-70
2021/10/10 14:23:42;;;;;;;15.70;6.60;;;;;;;14.12;41.65;101078.38;229834;1192;140153;-70
2021/10/10 14:28:46;;;;;;;9.00;6.00;;;;;;;13.91;41.35;101073.98;229374;1192;140223;-71
2021/10/10 14:33:50;;;;;;;9.80;5.90;;;;;;;13.74;41.93;101071.70;229902;1192;140982;-71
2021/10/10 14:38:59;;;;;;;8.60;6.00;;;;;;;13.58;42.45;101067.37;229818;1192;141113;-71
2021/10/10 14:44:14;;;;;;;9.40;6.40;;;;;;;13.45;42.55;101061.48;229535;1192;140587;-70
2021/10/10 14:49:18;;;;;;;10.30;6.00;;;;;;;13.30;42.76;101060.48;229772;1192;141017;-70
2021/10/10 14:54:25;;;;;;;7.40;5.90;;;;;;;13.11;42.83;101057.95;229415;1192;140515;-69
2021/10/10 14:59:31;;;;;;;9.30;6.60;;;;;;;12.94;43.25;101049.05;229444;1192;140075;-70
2021/10/10 15:04:39;;;;;;;8.40;5.70;;;;;;;12.79;43.73;101042.51;229125;1192;140721;-68
2021/10/10 15:09:44;;;;;;;7.80;5.60;;;;;;;12.61;43.92;101041.52;229217;1192;139561;-69
2021/10/10 15:14:51;;;;;;;11.60;6.80;;;;;;;12.42;44.39;101036.17;229264;1192;139737;-72
2021/10/10 15:19:55;;;;;;;7.40;5.20;;;;;;;12.21;45.43;101037.20;229690;1192;142295;-72
2021/10/10 15:25:00;;;;;;;7.50;6.00;;;;;;;11.97;45.72;101035.54;229759;1192;140141;-73
2021/10/10 15:30:07;;;;;;;8.40;5.90;;;;;;;11.71;46.77;101030.73;230380;1192;139218;-72
2021/10/10 15:35:33;;;;;;;;;;;;;;;11.43;47.31;101026.48;230158;1192;139973;-72
2021/10/10 15:40:38;;;;;;;8.40;6.80;;;;;;;11.14;48.19;101022.38;230682;1190;125255;-76
2021/10/10 15:45:44;;;;;;;9.90;6.40;;;;;;;10.94;48.58;101024.28;230203;1192;139591;-72
2021/10/10 15:50:49;;;;;;;10.60;7.70;;;;;;;10.70;49.00;101023.90;229701;1192;139063;-74
2021/10/10 15:55:55;;;;;;;12.40;6.70;;;;;;;10.46;49.51;101020.63;231039;1190;140213;-71
2021/10/10 16:00:59;;;;;;;10.10;7.20;;;;;;;10.26;49.95;101018.53;230457;1190;140224;-73
2021/10/10 16:06:07;;;;;;;9.20;8.10;;;;;;;10.06;50.03;101021.31;231171;1190;140904;-74
2021/10/10 16:11:12;;;;;;;13.50;7.80;;;;;;;9.86;50.15;101016.36;231235;1192;141252;-72
2021/10/10 16:16:18;;;;;;;11.20;7.90;;;;;;;9.65;51.18;101016.65;231330;1192;141591;-71
2021/10/10 16:21:24;;;;;;;16.40;8.70;;;;;;;9.44;51.88;101017.14;231396;1192;139828;-70
2021/10/10 16:26:31;;;;;;;11.20;8.60;;;;;;;9.18;52.69;101024.14;230605;1192;140408;-70
2021/10/10 16:31:38;;;;;;;13.20;8.90;;;;;;;8.88;53.49;101024.02;230389;1192;141158;-70
2021/10/10 16:36:53;;;;;;;11.30;8.30;;;;;;;8.62;54.08;101027.52;229774;1192;138786;-68
2021/10/10 16:42:04;;;;;;;15.00;8.10;;;;;;;8.34;54.39;101028.11;229711;1192;140292;-69
2021/10/10 16:47:13;;;;;;;11.70;7.40;;;;;;;8.08;54.92;101029.38;230158;1192;139986;-69
2021/10/10 16:52:19;;;;;;;13.70;7.90;;;;;;;7.84;55.89;101030.38;228684;1192;140286;-68
2021/10/10 16:57:24;;;;;;;12.90;8.50;;;;;;;7.59;56.28;101026.52;228764;1193;140748;-67
2021/10/10 17:02:30;;;;;;;12.10;9.10;;;;;;;7.32;56.25;101024.08;229599;1192;139747;-69
2021/10/10 17:07:35;;;;;;;9.90;7.90;;;;;;;7.08;56.70;101025.14;230229;1192;139252;-69
2021/10/10 17:12:40;;;;;;;34.70;11.80;;;;;;;6.86;57.80;101025.07;228886;1193;140112;-68
2021/10/10 17:17:45;;;;;;;18.10;10.50;;;;;;;6.70;58.24;101024.02;229320;1192;140210;-68
2021/10/10 17:22:51;;;;;;;15.90;9.90;;;;;;;6.47;58.57;101013.89;229012;1192;142520;-68
2021/10/10 17:27:56;;;;;;;25.40;13.10;;;;;;;6.21;58.47;101014.06;229533;1192;139841;-66
2021/10/10 17:33:01;;;;;;;21.90;12.50;;;;;;;5.91;59.30;101015.27;229410;1192;139564;-67
2021/10/10 17:38:08;;;;;;;19.90;10.50;;;;;;;5.66;59.70;101015.91;229134;1192;141127;-67
2021/10/10 17:43:13;;;;;;;;;;;;;;;5.44;60.56;101016.59;229507;1192;140315;-68
2021/10/10 17:48:19;;;;;;;27.20;14.30;;;;;;;5.33;61.51;101014.89;229326;1192;126860;-67
2021/10/10 17:53:29;;;;;;;26.00;14.10;;;;;;;5.33;61.89;101009.74;229587;1192;141022;-67
2021/10/10 18:04:20;;;;;;;28.10;17.10;;;;;;;5.27;62.29;101009.19;229764;1192;141532;-68
2021/10/10 18:14:47;;;;;;;28.60;15.60;;;;;;;4.84;62.39;101003.48;231206;1192;141544;-67
2021/10/10 18:19:53;;;;;;;33.70;17.60;;;;;;;4.66;62.68;100999.09;230897;1192;139993;-68
2021/10/10 18:24:57;;;;;;;35.50;16.80;;;;;;;4.50;62.95;100991.05;231004;1192;139838;-68
2021/10/10 18:30:04;;;;;;;39.60;18.90;;;;;;;4.32;63.23;100996.47;230913;1192;139317;-68
2021/10/10 18:35:10;;;;;;;39.90;20.30;;;;;;;4.23;64.12;100995.29;230388;1192;139961;-68
2021/10/10 18:40:14;;;;;;;46.60;24.80;;;;;;;4.25;64.58;100991.46;229863;1192;139438;-68
2021/10/10 18:45:19;;;;;;;48.30;23.60;;;;;;;4.24;64.42;100987.11;229866;1192;142322;-67
2021/10/10 18:50:24;;;;;;;43.00;23.80;;;;;;;4.20;64.27;100986.48;230249;1192;141446;-69
2021/10/10 18:55:28;;;;;;;50.90;26.00;;;;;;;4.09;64.53;100984.62;230296;1192;142116;-68
2021/10/10 19:00:34;;;;;;;45.70;23.50;;;;;;;4.06;65.32;100974.79;229683;1192;140699;-68
2021/10/10 19:05:42;;;;;;;36.90;20.00;;;;;;;4.09;65.54;100980.80;229412;1192;140531;-68
2021/10/10 19:10:48;;;;;;;42.70;21.40;;;;;;;3.98;65.70;100976.16;229710;1192;139989;-68
2021/10/10 19:15:54;;;;;;;41.80;20.20;;;;;;;3.75;65.76;100973.17;229301;1192;140961;-68
2021/10/10 19:20:58;;;;;;;38.90;18.60;;;;;;;3.52;65.94;100978.33;230415;1192;139465;-67
2021/10/10 19:26:03;;;;;;;44.10;21.70;;;;;;;3.38;66.38;100975.59;229783;1192;139296;-68
2021/10/10 19:31:09;;;;;;;55.80;25.40;;;;;;;3.41;66.83;100976.55;230035;1192;140989;-67
2021/10/10 19:36:28;;;;;;;47.50;23.50;;;;;;;3.51;67.25;100973.05;230052;1192;140365;-67
2021/10/10 19:41:34;;;;;;;47.80;27.70;;;;;;;3.59;67.30;100965.55;230619;1192;140471;-68
2021/10/10 19:46:39;;;;;;;48.60;26.80;;;;;;;3.50;67.20;100965.27;230055;1192;139923;-67
2021/10/10 19:51:45;;;;;;;47.20;24.50;;;;;;;3.33;66.92;100964.51;230675;1192;139388;-68
2021/10/10 19:56:50;;;;;;;56.70;26.50;;;;;;;3.23;67.45;100970.09;231126;1191;233722;-67
2021/10/10 20:01:55;;;;;;;48.80;21.20;;;;;;;3.21;67.65;100968.77;229940;1192;140532;-67
2021/10/10 20:07:00;;;;;;;51.90;27.90;;;;;;;3.16;67.42;100964.02;230590;1192;140319;-66
2021/10/10 20:12:07;;;;;;;49.00;25.60;;;;;;;3.13;67.78;100965.38;231225;1191;140938;-68
2021/10/10 20:17:12;;;;;;;66.80;33.00;;;;;;;3.07;67.65;100956.11;231310;1192;139033;-68
2021/10/10 20:22:16;;;;;;;58.20;34.80;;;;;;;2.98;67.92;100954.61;231040;1191;139699;-66
2021/10/10 20:27:23;;;;;;;87.10;47.90;;;;;;;2.86;68.11;100948.44;230130;1192;140845;-67
2021/10/10 20:32:30;;;;;;;73.40;42.00;;;;;;;2.72;68.03;100936.38;229394;1192;141621;-68
2021/10/10 20:37:36;;;;;;;68.00;40.10;;;;;;;2.60;68.42;100928.27;229517;1192;139140;-65
2021/10/10 20:42:43;;;;;;;60.80;31.30;;;;;;;2.49;68.37;100924.78;230001;1192;139895;-66
2021/10/10 20:47:48;;;;;;;41.00;25.90;;;;;;;2.44;68.76;100918.51;229736;1190;140918;-66
2021/10/10 20:52:53;;;;;;;51.70;30.10;;;;;;;2.47;69.23;100917.00;229591;1190;139300;-66
2021/10/10 20:57:58;;;;;;;70.20;35.60;;;;;;;2.50;69.58;100910.71;230138;1192;151249;-66
2021/10/10 21:03:03;;;;;;;41.50;29.00;;;;;;;2.38;69.10;100903.83;229663;1192;139355;-66
2021/10/10 21:08:08;;;;;;;52.20;30.00;;;;;;;2.19;69.20;100900.26;229358;1192;139512;-65
2021/10/10 21:13:14;;;;;;;54.80;31.80;;;;;;;2.07;69.78;100900.79;229578;1190;139062;-66
2021/10/10 21:18:19;;;;;;;61.00;35.50;;;;;;;2.06;70.01;100895.42;229666;1192;141620;-66
2021/10/10 21:23:25;;;;;;;78.80;39.80;;;;;;;2.09;70.06;100893.54;230016;1192;139594;-67
2021/10/10 21:28:46;;;;;;;64.30;36.20;;;;;;;2.02;69.59;100886.87;229368;1192;151019;-67
2021/10/10 21:34:10;;;;;;;71.00;40.70;;;;;;;1.89;70.13;100882.23;228881;1192;140141;-66
2021/10/10 21:39:17;;;;;;;82.60;48.20;;;;;;;1.79;70.29;100874.89;229483;1192;140553;-66
2021/10/10 21:44:23;;;;;;;76.90;42.40;;;;;;;1.71;70.32;100872.78;230468;1192;139548;-67
2021/10/10 21:49:29;;;;;;;88.60;47.60;;;;;;;1.63;70.66;100867.73;229290;1192;220195;-66
2021/10/10 21:54:35;;;;;;;92.30;46.80;;;;;;;1.64;70.65;100860.15;229504;1192;140746;-66
2021/10/10 21:59:41;;;;;;;87.00;51.40;;;;;;;1.59;70.58;100856.95;230457;1192;139733;-67
2021/10/10 22:04:46;;;;;;;80.70;46.40;;;;;;;1.54;70.62;100851.17;230482;1192;139378;-66
2021/10/10 22:09:51;;;;;;;74.00;40.20;;;;;;;1.48;70.71;100842.50;230538;1192;140052;-67
2021/10/10 22:14:56;;;;;;;78.10;40.00;;;;;;;1.42;71.11;100840.76;230480;1192;141277;-66
2021/10/10 22:20:01;;;;;;;65.10;38.30;;;;;;;1.38;71.08;100838.54;230977;1192;139345;-66
2021/10/10 22:25:15;;;;;;;84.40;42.40;;;;;;;1.34;71.31;100838.36;231232;1192;139778;-66
2021/10/10 22:30:21;;;;;;;76.10;45.00;;;;;;;1.36;70.98;100831.23;230761;1192;140905;-66
2021/10/10 22:35:28;;;;;;;89.50;47.00;;;;;;;1.36;71.18;100830.87;229422;1193;139790;-65
2021/10/10 22:40:32;;;;;;;85.40;47.80;;;;;;;1.34;71.27;100822.41;230435;1192;140480;-66
2021/10/10 22:45:37;;;;;;;77.90;48.30;;;;;;;1.30;71.58;100814.29;230193;1192;139589;-66
2021/10/10 22:50:42;;;;;;;69.80;39.50;;;;;;;1.28;71.64;100811.14;229104;1192;149711;-65
2021/10/10 22:55:47;;;;;;;87.50;46.70;;;;;;;1.18;71.58;100808.42;229774;1191;139334;-65
2021/10/10 23:00:51;;;;;;;87.80;51.10;;;;;;;1.25;71.88;100804.96;229132;1192;139571;-65
2021/10/10 23:05:55;;;;;;;100.10;59.90;;;;;;;1.26;72.10;100803.80;230034;1192;143323;-64
2021/10/10 23:11:00;;;;;;;89.80;50.20;;;;;;;1.22;72.30;100799.47;229952;1192;140743;-65
2021/10/10 23:16:07;;;;;;;54.70;32.70;;;;;;;1.19;72.65;100803.42;229610;1192;140454;-65
2021/10/10 23:21:12;;;;;;;58.10;33.80;;;;;;;1.10;72.41;100795.17;229358;1192;140222;-65